sensor_id;sensor_type;location;lat;lon;timestamp;pressure;altitude;pressure_sealevel;temperature;humidity
34979;BME280;21185;50.978;13.720;2023-02-22T00:04:01;98314.72;;;10.29;70.40
34979;BME280;21185;50.978;13.720;2023-02-22T00:09:03;98312.44;;;10.26;70.56
34979;BME280;21185;50.978;13.720;2023-02-22T00:14:06;98310.00;;;10.25;70.51
34979;BME280;21185;50.978;13.720;2023-02-22T00:19:08;98309.34;;;10.23;70.48
34979;BME280;21185;50.978;13.720;2023-02-22T00:24:11;98305.94;;;10.22;70.55
34979;BME280;21185;50.978;13.720;2023-02-22T00:29:25;98300.91;;;10.21;70.68
34979;BME280;21185;50.978;13.720;2023-02-22T00:34:27;98299.41;;;10.18;70.54
34979;BME280;21185;50.978;13.720;2023-02-22T00:39:29;98303.81;;;10.18;70.62
34979;BME280;21185;50.978;13.720;2023-02-22T00:44:33;98299.91;;;10.14;70.51
34979;BME280;21185;50.978;13.720;2023-02-22T00:49:35;98297.78;;;10.09;70.58
34979;BME280;21185;50.978;13.720;2023-02-22T00:54:37;98304.91;;;10.07;70.62
34979;BME280;21185;50.978;13.720;2023-02-22T00:59:40;98296.47;;;10.05;70.85
34979;BME280;21185;50.978;13.720;2023-02-22T01:04:43;98294.19;;;10.02;70.65
34979;BME280;21185;50.978;13.720;2023-02-22T01:09:45;98310.72;;;10.01;70.73
34979;BME280;21185;50.978;13.720;2023-02-22T01:14:47;98303.91;;;10.00;70.74
34979;BME280;21185;50.978;13.720;2023-02-22T01:19:49;98301.31;;;10.00;70.92
34979;BME280;21185;50.978;13.720;2023-02-22T01:24:54;98296.13;;;10.00;70.83
34979;BME280;21185;50.978;13.720;2023-02-22T01:29:56;98302.94;;;10.01;70.89
34979;BME280;21185;50.978;13.720;2023-02-22T01:35:00;98290.94;;;10.00;70.91
34979;BME280;21185;50.978;13.720;2023-02-22T01:40:04;98291.25;;;9.97;71.00
34979;BME280;21185;50.978;13.720;2023-02-22T01:50:37;98293.53;;;9.92;71.12
34979;BME280;21185;50.978;13.720;2023-02-22T01:55:41;98283.16;;;9.92;70.97
34979;BME280;21185;50.978;13.720;2023-02-22T02:00:43;98280.72;;;9.90;71.11
34979;BME280;21185;50.978;13.720;2023-02-22T02:05:45;98289.31;;;9.91;71.08
34979;BME280;21185;50.978;13.720;2023-02-22T02:10:48;98285.09;;;9.90;71.12
34979;BME280;21185;50.978;13.720;2023-02-22T02:15:53;98286.88;;;9.89;71.28
34979;BME280;21185;50.978;13.720;2023-02-22T02:21:04;98285.25;;;9.88;71.47
34979;BME280;21185;50.978;13.720;2023-02-22T02:36:43;98262.72;;;9.81;71.41
34979;BME280;21185;50.978;13.720;2023-02-22T02:41:49;98257.19;;;9.76;71.39
34979;BME280;21185;50.978;13.720;2023-02-22T02:46:55;98255.06;;;9.71;71.54
34979;BME280;21185;50.978;13.720;2023-02-22T02:52:02;98256.34;;;9.67;71.53
34979;BME280;21185;50.978;13.720;2023-02-22T02:57:05;98255.19;;;9.61;71.51
34979;BME280;21185;50.978;13.720;2023-02-22T03:07:36;98252.72;;;9.52;71.51
34979;BME280;21185;50.978;13.720;2023-02-22T03:18:07;98249.63;;;9.48;71.52
34979;BME280;21185;50.978;13.720;2023-02-22T03:28:17;98234.56;;;9.44;71.55
34979;BME280;21185;50.978;13.720;2023-02-22T03:33:35;98242.19;;;9.45;71.50
34979;BME280;21185;50.978;13.720;2023-02-22T03:38:39;98230.84;;;9.46;71.66
34979;BME280;21185;50.978;13.720;2023-02-22T03:43:49;98235.06;;;9.47;71.76
34979;BME280;21185;50.978;13.720;2023-02-22T03:49:00;98229.88;;;9.47;71.51
34979;BME280;21185;50.978;13.720;2023-02-22T03:54:08;98230.69;;;9.48;71.75
34979;BME280;21185;50.978;13.720;2023-02-22T03:59:21;98229.72;;;9.49;71.70
34979;BME280;21185;50.978;13.720;2023-02-22T04:04:26;98231.66;;;9.47;71.67
34979;BME280;21185;50.978;13.720;2023-02-22T04:09:29;98229.06;;;9.47;71.82
34979;BME280;21185;50.978;13.720;2023-02-22T04:14:31;98224.03;;;9.45;71.65
34979;BME280;21185;50.978;13.720;2023-02-22T04:19:34;98221.13;;;9.40;71.76
34979;BME280;21185;50.978;13.720;2023-02-22T04:24:36;98221.44;;;9.37;71.89
34979;BME280;21185;50.978;13.720;2023-02-22T04:29:38;98229.34;;;9.35;72.14
34979;BME280;21185;50.978;13.720;2023-02-22T04:34:41;98221.75;;;9.34;71.92
34979;BME280;21185;50.978;13.720;2023-02-22T04:39:43;98224.63;;;9.31;71.90
34979;BME280;21185;50.978;13.720;2023-02-22T04:44:45;98230.13;;;9.28;72.05
34979;BME280;21185;50.978;13.720;2023-02-22T04:49:47;98218.75;;;9.21;72.21
34979;BME280;21185;50.978;13.720;2023-02-22T04:54:49;98210.81;;;9.14;72.10
34979;BME280;21185;50.978;13.720;2023-02-22T04:59:52;98211.13;;;9.11;72.26
34979;BME280;21185;50.978;13.720;2023-02-22T05:04:57;98216.13;;;9.13;72.25
34979;BME280;21185;50.978;13.720;2023-02-22T05:09:59;98212.44;;;9.15;72.29
34979;BME280;21185;50.978;13.720;2023-02-22T05:15:05;98221.66;;;9.18;72.13
34979;BME280;21185;50.978;13.720;2023-02-22T05:20:16;98222.31;;;9.20;72.38
34979;BME280;21185;50.978;13.720;2023-02-22T05:25:23;98222.97;;;9.22;72.39
34979;BME280;21185;50.978;13.720;2023-02-22T05:30:28;98218.28;;;9.25;72.35
34979;BME280;21185;50.978;13.720;2023-02-22T05:35:31;98214.91;;;9.25;72.31
34979;BME280;21185;50.978;13.720;2023-02-22T05:40:33;98214.75;;;9.26;72.33
34979;BME280;21185;50.978;13.720;2023-02-22T05:45:35;98214.91;;;9.25;72.26
34979;BME280;21185;50.978;13.720;2023-02-22T05:50:37;98214.91;;;9.25;72.56
34979;BME280;21185;50.978;13.720;2023-02-22T05:55:39;98222.66;;;9.25;72.46
34979;BME280;21185;50.978;13.720;2023-02-22T06:00:41;98225.91;;;9.27;72.38
34979;BME280;21185;50.978;13.720;2023-02-22T06:05:43;98231.91;;;9.27;72.55
34979;BME280;21185;50.978;13.720;2023-02-22T06:10:45;98224.94;;;9.28;72.56
34979;BME280;21185;50.978;13.720;2023-02-22T06:15:47;98229.31;;;9.27;72.47
34979;BME280;21185;50.978;13.720;2023-02-22T06:20:49;98225.09;;;9.26;72.48
34979;BME280;21185;50.978;13.720;2023-02-22T06:25:51;98232.72;;;9.28;72.53
34979;BME280;21185;50.978;13.720;2023-02-22T06:30:53;98229.97;;;9.29;72.46
34979;BME280;21185;50.978;13.720;2023-02-22T06:35:55;98227.72;;;9.34;72.58
34979;BME280;21185;50.978;13.720;2023-02-22T06:40:58;98237.94;;;9.36;72.43
34979;BME280;21185;50.978;13.720;2023-02-22T06:46:00;98232.75;;;9.36;72.54
34979;BME280;21185;50.978;13.720;2023-02-22T06:51:02;98241.34;;;9.36;72.69
34979;BME280;21185;50.978;13.720;2023-02-22T06:56:05;98242.78;;;9.39;72.56
34979;BME280;21185;50.978;13.720;2023-02-22T07:01:07;98245.72;;;9.44;72.65
34979;BME280;21185;50.978;13.720;2023-02-22T07:06:09;98254.50;;;9.51;72.65
34979;BME280;21185;50.978;13.720;2023-02-22T07:11:11;98252.25;;;9.56;72.82
34979;BME280;21185;50.978;13.720;2023-02-22T07:16:13;98254.22;;;9.62;72.66
34979;BME280;21185;50.978;13.720;2023-02-22T07:21:15;98254.56;;;9.67;72.78
34979;BME280;21185;50.978;13.720;2023-02-22T07:26:21;98252.31;;;9.72;72.74
34979;BME280;21185;50.978;13.720;2023-02-22T07:31:23;98269.00;;;9.78;72.84
34979;BME280;21185;50.978;13.720;2023-02-22T07:36:25;98256.56;;;9.82;72.83
34979;BME280;21185;50.978;13.720;2023-02-22T07:41:27;98258.69;;;9.86;72.99
34979;BME280;21185;50.978;13.720;2023-02-22T07:46:29;98266.78;;;9.91;72.90
34979;BME280;21185;50.978;13.720;2023-02-22T07:51:31;98258.53;;;9.96;72.82
34979;BME280;21185;50.978;13.720;2023-02-22T07:56:33;98258.88;;;10.01;73.04
34979;BME280;21185;50.978;13.720;2023-02-22T08:01:35;98261.97;;;10.04;72.95
34979;BME280;21185;50.978;13.720;2023-02-22T08:06:38;98254.03;;;10.06;73.02
34979;BME280;21185;50.978;13.720;2023-02-22T08:11:40;98257.28;;;10.08;73.07
34979;BME280;21185;50.978;13.720;2023-02-22T08:16:42;98257.75;;;10.12;73.06
34979;BME280;21185;50.978;13.720;2023-02-22T08:21:44;98262.47;;;10.16;73.04
34979;BME280;21185;50.978;13.720;2023-02-22T08:26:46;98260.41;;;10.20;73.17
34979;BME280;21185;50.978;13.720;2023-02-22T08:31:51;98259.44;;;10.21;73.10
34979;BME280;21185;50.978;13.720;2023-02-22T08:36:59;98255.53;;;10.25;73.05
34979;BME280;21185;50.978;13.720;2023-02-22T08:42:01;98258.63;;;10.28;73.00
34979;BME280;21185;50.978;13.720;2023-02-22T08:47:03;98252.47;;;10.37;72.99
34979;BME280;21185;50.978;13.720;2023-02-22T08:52:05;98255.03;;;10.46;73.07
34979;BME280;21185;50.978;13.720;2023-02-22T08:57:07;98251.63;;;10.53;72.95
34979;BME280;21185;50.978;13.720;2023-02-22T09:02:17;98245.47;;;10.62;72.94
34979;BME280;21185;50.978;13.720;2023-02-22T09:07:21;98249.03;;;10.69;73.04
34979;BME280;21185;50.978;13.720;2023-02-22T09:12:23;98253.25;;;10.70;73.08
34979;BME280;21185;50.978;13.720;2023-02-22T09:17:24;98246.44;;;10.69;73.01
34979;BME280;21185;50.978;13.720;2023-02-22T09:22:26;98248.72;;;10.73;72.86
34979;BME280;21185;50.978;13.720;2023-02-22T09:27:28;98250.81;;;10.77;73.08
34979;BME280;21185;50.978;13.720;2023-02-22T09:32:30;98237.69;;;10.70;73.18
34979;BME280;21185;50.978;13.720;2023-02-22T09:37:32;98245.63;;;10.69;73.12
34979;BME280;21185;50.978;13.720;2023-02-22T09:42:41;98232.97;;;10.74;73.25
34979;BME280;21185;50.978;13.720;2023-02-22T09:47:54;98231.03;;;10.84;73.04
34979;BME280;21185;50.978;13.720;2023-02-22T09:53:27;98222.91;;;10.87;72.83
34979;BME280;21185;50.978;13.720;2023-02-22T09:58:38;98225.97;;;10.91;72.93
34979;BME280;21185;50.978;13.720;2023-02-22T10:08:59;98206.16;;;11.06;72.61
34979;BME280;21185;50.978;13.720;2023-02-22T10:24:47;98214.06;;;11.21;72.43
34979;BME280;21185;50.978;13.720;2023-02-22T10:35:29;98198.78;;;11.26;72.30
34979;BME280;21185;50.978;13.720;2023-02-22T10:40:33;98201.38;;;11.26;72.24
34979;BME280;21185;50.978;13.720;2023-02-22T10:45:35;98198.44;;;11.29;72.14
34979;BME280;21185;50.978;13.720;2023-02-22T10:50:41;98188.69;;;11.31;72.08
34979;BME280;21185;50.978;13.720;2023-02-22T11:01:32;98179.88;;;11.40;71.51
34979;BME280;21185;50.978;13.720;2023-02-22T11:06:37;98179.06;;;11.40;71.67
34979;BME280;21185;50.978;13.720;2023-02-22T11:11:44;98178.75;;;11.43;71.56
34979;BME280;21185;50.978;13.720;2023-02-22T11:16:52;98170.47;;;11.39;71.58
34979;BME280;21185;50.978;13.720;2023-02-22T11:21:56;98165.09;;;11.41;71.55
34979;BME280;21185;50.978;13.720;2023-02-22T11:27:01;98163.31;;;11.41;71.47
34979;BME280;21185;50.978;13.720;2023-02-22T11:32:17;98156.16;;;11.43;71.34
34979;BME280;21185;50.978;13.720;2023-02-22T11:37:32;98156.94;;;11.52;71.17
34979;BME280;21185;50.978;13.720;2023-02-22T11:42:35;98148.44;;;11.58;70.90
34979;BME280;21185;50.978;13.720;2023-02-22T11:47:58;98149.72;;;11.62;70.93
34979;BME280;21185;50.978;13.720;2023-02-22T12:14:42;98137.06;;;11.59;70.33
34979;BME280;21185;50.978;13.720;2023-02-22T12:24:46;98131.38;;;11.63;70.34
34979;BME280;21185;50.978;13.720;2023-02-22T12:30:06;98126.16;;;11.63;69.83
34979;BME280;21185;50.978;13.720;2023-02-22T12:35:18;98118.25;;;11.57;70.01
34979;BME280;21185;50.978;13.720;2023-02-22T12:46:01;98117.84;;;11.68;69.76
34979;BME280;21185;50.978;13.720;2023-02-22T12:56:41;98110.97;;;11.75;69.56
34979;BME280;21185;50.978;13.720;2023-02-22T13:01:51;98104.81;;;11.76;69.62
34979;BME280;21185;50.978;13.720;2023-02-22T13:12:31;98104.13;;;11.82;69.38
34979;BME280;21185;50.978;13.720;2023-02-22T13:28:23;98101.25;;;11.77;69.02
34979;BME280;21185;50.978;13.720;2023-02-22T13:44:38;98093.75;;;11.82;68.91
34979;BME280;21185;50.978;13.720;2023-02-22T13:55:07;98100.41;;;11.77;69.06
34979;BME280;21185;50.978;13.720;2023-02-22T14:05:54;98103.53;;;11.72;68.91
34979;BME280;21185;50.978;13.720;2023-02-22T14:11:05;98107.09;;;11.71;68.98
34979;BME280;21185;50.978;13.720;2023-02-22T14:16:17;98099.50;;;11.69;68.87
34979;BME280;21185;50.978;13.720;2023-02-22T14:21:23;98091.06;;;11.67;69.03
34979;BME280;21185;50.978;13.720;2023-02-22T14:26:26;98084.25;;;11.66;68.97
34979;BME280;21185;50.978;13.720;2023-02-22T14:31:31;98086.19;;;11.64;69.04
34979;BME280;21185;50.978;13.720;2023-02-22T14:36:46;98078.56;;;11.63;68.99
34979;BME280;21185;50.978;13.720;2023-02-22T14:42:03;98073.38;;;11.63;68.95
34979;BME280;21185;50.978;13.720;2023-02-22T14:47:17;98063.78;;;11.63;68.98
34979;BME280;21185;50.978;13.720;2023-02-22T14:52:27;98065.59;;;11.63;69.06
34979;BME280;21185;50.978;13.720;2023-02-22T15:02:42;98062.97;;;11.63;69.03
34979;BME280;21185;50.978;13.720;2023-02-22T15:13:17;98060.22;;;11.64;68.95
34979;BME280;21185;50.978;13.720;2023-02-22T15:23:43;98048.44;;;11.54;69.01
34979;BME280;21185;50.978;13.720;2023-02-22T15:28:46;98050.91;;;11.47;69.11
34979;BME280;21185;50.978;13.720;2023-02-22T15:33:48;98045.44;;;11.42;69.05
34979;BME280;21185;50.978;13.720;2023-02-22T15:38:54;98039.31;;;11.35;69.28
34979;BME280;21185;50.978;13.720;2023-02-22T15:44:05;98037.56;;;11.27;69.27
34979;BME280;21185;50.978;13.720;2023-02-22T15:49:23;98043.44;;;11.21;69.39
34979;BME280;21185;50.978;13.720;2023-02-22T15:54:26;98042.34;;;11.16;69.38
34979;BME280;21185;50.978;13.720;2023-02-22T15:59:28;98042.06;;;11.11;69.43
34979;BME280;21185;50.978;13.720;2023-02-22T16:04:34;98046.94;;;11.06;69.40
34979;BME280;21185;50.978;13.720;2023-02-22T16:09:36;98042.25;;;11.01;69.50
34979;BME280;21185;50.978;13.720;2023-02-22T16:14:40;98033.38;;;10.95;69.43
34979;BME280;21185;50.978;13.720;2023-02-22T16:19:43;98036.00;;;10.87;69.67
34979;BME280;21185;50.978;13.720;2023-02-22T16:24:45;98035.72;;;10.82;69.38
34979;BME280;21185;50.978;13.720;2023-02-22T16:30:15;98038.81;;;10.78;69.67
34979;BME280;21185;50.978;13.720;2023-02-22T16:35:27;98048.25;;;10.70;69.64
34979;BME280;21185;50.978;13.720;2023-02-22T16:40:31;98047.13;;;10.65;69.73
34979;BME280;21185;50.978;13.720;2023-02-22T16:45:35;98046.19;;;10.58;69.52
34979;BME280;21185;50.978;13.720;2023-02-22T16:50:37;98043.63;;;10.50;69.77
34979;BME280;21185;50.978;13.720;2023-02-22T16:55:41;98049.47;;;10.44;69.75
34979;BME280;21185;50.978;13.720;2023-02-22T17:00:45;98044.63;;;10.41;69.81
34979;BME280;21185;50.978;13.720;2023-02-22T17:05:47;98046.13;;;10.35;69.68
34979;BME280;21185;50.978;13.720;2023-02-22T17:10:50;98048.25;;;10.31;69.77
34979;BME280;21185;50.978;13.720;2023-02-22T17:15:54;98038.53;;;10.25;69.83
34979;BME280;21185;50.978;13.720;2023-02-22T17:20:56;98045.00;;;10.21;69.69
34979;BME280;21185;50.978;13.720;2023-02-22T17:26:00;98046.63;;;10.14;69.69
34979;BME280;21185;50.978;13.720;2023-02-22T17:31:05;98042.75;;;10.10;69.94
34979;BME280;21185;50.978;13.720;2023-02-22T17:36:07;98043.06;;;10.07;69.87
34979;BME280;21185;50.978;13.720;2023-02-22T17:41:09;98054.72;;;10.03;69.77
34979;BME280;21185;50.978;13.720;2023-02-22T17:46:11;98048.41;;;9.97;69.80
34979;BME280;21185;50.978;13.720;2023-02-22T17:51:13;98048.44;;;9.89;69.72
34979;BME280;21185;50.978;13.720;2023-02-22T17:56:17;98050.69;;;9.84;69.67
34979;BME280;21185;50.978;13.720;2023-02-22T18:01:24;98045.19;;;9.79;69.68
34979;BME280;21185;50.978;13.720;2023-02-22T18:06:29;98042.28;;;9.74;69.64
34979;BME280;21185;50.978;13.720;2023-02-22T18:11:33;98036.94;;;9.67;69.73
34979;BME280;21185;50.978;13.720;2023-02-22T18:16:35;98034.50;;;9.66;69.69
34979;BME280;21185;50.978;13.720;2023-02-22T18:21:39;98035.47;;;9.65;69.62
34979;BME280;21185;50.978;13.720;2023-02-22T18:26:41;98034.84;;;9.63;69.89
34979;BME280;21185;50.978;13.720;2023-02-22T18:31:43;98029.50;;;9.56;69.84
34979;BME280;21185;50.978;13.720;2023-02-22T18:36:46;98018.16;;;9.49;69.98
34979;BME280;21185;50.978;13.720;2023-02-22T18:41:49;98015.41;;;9.43;70.16
34979;BME280;21185;50.978;13.720;2023-02-22T18:46:51;98021.06;;;9.38;70.14
34979;BME280;21185;50.978;13.720;2023-02-22T18:51:54;98018.63;;;9.36;70.14
34979;BME280;21185;50.978;13.720;2023-02-22T18:56:56;98013.78;;;9.33;70.14
34979;BME280;21185;50.978;13.720;2023-02-22T19:01:58;98011.66;;;9.29;70.29
34979;BME280;21185;50.978;13.720;2023-02-22T19:07:00;98006.00;;;9.25;70.25
34979;BME280;21185;50.978;13.720;2023-02-22T19:12:02;97998.38;;;9.24;70.24
34979;BME280;21185;50.978;13.720;2023-02-22T19:17:04;98001.13;;;9.22;70.35
34979;BME280;21185;50.978;13.720;2023-02-22T19:22:08;98001.28;;;9.21;70.40
34979;BME280;21185;50.978;13.720;2023-02-22T19:27:12;98001.47;;;9.19;70.13
34979;BME280;21185;50.978;13.720;2023-02-22T19:32:14;97989.47;;;9.18;70.17
34979;BME280;21185;50.978;13.720;2023-02-22T19:37:18;97987.06;;;9.17;69.98
34979;BME280;21185;50.978;13.720;2023-02-22T19:42:23;97981.22;;;9.15;70.06
34979;BME280;21185;50.978;13.720;2023-02-22T19:47:25;97988.34;;;9.13;69.98
34979;BME280;21185;50.978;13.720;2023-02-22T19:52:27;97987.38;;;9.05;69.89
34979;BME280;21185;50.978;13.720;2023-02-22T19:57:29;97986.22;;;9.00;69.99
34979;BME280;21185;50.978;13.720;2023-02-22T20:02:31;97987.66;;;8.94;70.02
34979;BME280;21185;50.978;13.720;2023-02-22T20:07:33;97983.13;;;8.88;69.94
34979;BME280;21185;50.978;13.720;2023-02-22T20:12:35;97984.41;;;8.84;69.63
34979;BME280;21185;50.978;13.720;2023-02-22T20:17:36;97981.47;;;8.79;69.77
34979;BME280;21185;50.978;13.720;2023-02-22T20:22:38;97979.22;;;8.76;69.82
34979;BME280;21185;50.978;13.720;2023-02-22T20:27:41;97980.50;;;8.72;69.76
34979;BME280;21185;50.978;13.720;2023-02-22T20:32:43;97982.75;;;8.67;69.67
34979;BME280;21185;50.978;13.720;2023-02-22T20:37:45;97972.72;;;8.64;69.78
34979;BME280;21185;50.978;13.720;2023-02-22T20:42:47;97978.03;;;8.62;69.75
34979;BME280;21185;50.978;13.720;2023-02-22T20:47:50;97977.38;;;8.60;69.67
34979;BME280;21185;50.978;13.720;2023-02-22T20:52:52;97982.88;;;8.57;69.76
34979;BME280;21185;50.978;13.720;2023-02-22T20:57:54;97972.69;;;8.56;69.66
34979;BME280;21185;50.978;13.720;2023-02-22T21:02:56;97973.00;;;8.53;69.80
34979;BME280;21185;50.978;13.720;2023-02-22T21:07:58;97973.31;;;8.50;69.50
34979;BME280;21185;50.978;13.720;2023-02-22T21:13:01;97976.38;;;8.45;69.66
34979;BME280;21185;50.978;13.720;2023-02-22T21:18:06;97972.31;;;8.42;69.50
34979;BME280;21185;50.978;13.720;2023-02-22T21:23:09;97975.88;;;8.41;69.65
34979;BME280;21185;50.978;13.720;2023-02-22T21:28:11;97963.25;;;8.38;69.65
34979;BME280;21185;50.978;13.720;2023-02-22T21:33:13;97968.56;;;8.37;69.83
34979;BME280;21185;50.978;13.720;2023-02-22T21:38:19;97960.31;;;8.33;69.69
34979;BME280;21185;50.978;13.720;2023-02-22T21:43:23;97951.88;;;8.31;69.91
34979;BME280;21185;50.978;13.720;2023-02-22T21:48:25;97958.00;;;8.30;69.70
34979;BME280;21185;50.978;13.720;2023-02-22T21:53:27;97950.25;;;8.30;69.85
34979;BME280;21185;50.978;13.720;2023-02-22T21:58:29;97947.66;;;8.30;69.77
34979;BME280;21185;50.978;13.720;2023-02-22T22:03:31;97940.88;;;8.29;69.81
34979;BME280;21185;50.978;13.720;2023-02-22T22:08:34;97937.34;;;8.30;70.04
34979;BME280;21185;50.978;13.720;2023-02-22T22:13:41;97936.69;;;8.28;69.96
34979;BME280;21185;50.978;13.720;2023-02-22T22:18:44;97939.56;;;8.25;70.04
34979;BME280;21185;50.978;13.720;2023-02-22T22:23:46;97937.16;;;8.24;69.97
34979;BME280;21185;50.978;13.720;2023-02-22T22:28:52;97931.31;;;8.22;69.88
34979;BME280;21185;50.978;13.720;2023-02-22T22:33:55;97936.66;;;8.20;70.17
34979;BME280;21185;50.978;13.720;2023-02-22T22:38:57;97932.59;;;8.18;70.28
34979;BME280;21185;50.978;13.720;2023-02-22T22:43:59;97937.25;;;8.14;70.20
34979;BME280;21185;50.978;13.720;2023-02-22T22:49:01;97935.66;;;8.13;70.44
34979;BME280;21185;50.978;13.720;2023-02-22T22:54:03;97942.75;;;8.11;70.21
34979;BME280;21185;50.978;13.720;2023-02-22T22:59:10;97939.50;;;8.09;70.39
34979;BME280;21185;50.978;13.720;2023-02-22T23:04:15;97937.88;;;8.08;70.55
34979;BME280;21185;50.978;13.720;2023-02-22T23:09:30;97941.44;;;8.07;70.46
34979;BME280;21185;50.978;13.720;2023-02-22T23:14:38;97939.81;;;8.06;70.48
34979;BME280;21185;50.978;13.720;2023-02-22T23:19:42;97943.50;;;8.03;70.53
34979;BME280;21185;50.978;13.720;2023-02-22T23:24:47;97936.06;;;8.00;70.46
34979;BME280;21185;50.978;13.720;2023-02-22T23:29:49;97940.44;;;8.00;70.77
34979;BME280;21185;50.978;13.720;2023-02-22T23:34:53;97943.16;;;7.98;70.77
34979;BME280;21185;50.978;13.720;2023-02-22T23:39:55;97939.13;;;7.96;70.64
34979;BME280;21185;50.978;13.720;2023-02-22T23:44:56;97945.41;;;7.93;70.76
34979;BME280;21185;50.978;13.720;2023-02-22T23:49:59;97943.78;;;7.92;70.58
34979;BME280;21185;50.978;13.720;2023-02-22T23:55:01;97946.50;;;7.91;70.99
